sensor_id;sensor_type;location;lat;lon;timestamp;pressure;altitude;pressure_sealevel;temperature;humidity
36192;BME280;22233;42.708;23.360;2023-01-26T00:01:20;95910.81;;;1.90;68.86
36192;BME280;22233;42.708;23.360;2023-01-26T00:03:46;95896.84;;;1.88;69.37
36192;BME280;22233;42.708;23.360;2023-01-26T00:06:14;95922.91;;;1.93;69.07
36192;BME280;22233;42.708;23.360;2023-01-26T00:08:44;95907.09;;;1.91;68.38
36192;BME280;22233;42.708;23.360;2023-01-26T00:11:12;95915.06;;;1.52;69.83
36192;BME280;22233;42.708;23.360;2023-01-26T00:13:38;95904.31;;;1.18;70.91
36192;BME280;22233;42.708;23.360;2023-01-26T00:16:07;95908.53;;;1.14;72.00
36192;BME280;22233;42.708;23.360;2023-01-26T00:18:32;95910.84;;;1.56;70.01
36192;BME280;22233;42.708;23.360;2023-01-26T00:20:59;95918.47;;;1.65;69.06
36192;BME280;22233;42.708;23.360;2023-01-26T00:23:26;95920.97;;;1.54;69.36
36192;BME280;22233;42.708;23.360;2023-01-26T00:25:52;95911.00;;;1.33;70.55
36192;BME280;22233;42.708;23.360;2023-01-26T00:28:18;95912.63;;;1.34;70.77
36192;BME280;22233;42.708;23.360;2023-01-26T00:30:43;95895.25;;;1.36;69.67
36192;BME280;22233;42.708;23.360;2023-01-26T00:33:09;95894.69;;;1.34;70.02
36192;BME280;22233;42.708;23.360;2023-01-26T00:35:34;95886.75;;;1.39;69.75
36192;BME280;22233;42.708;23.360;2023-01-26T00:37:59;95871.66;;;1.50;69.44
36192;BME280;22233;42.708;23.360;2023-01-26T00:40:25;95871.09;;;1.48;68.88
36192;BME280;22233;42.708;23.360;2023-01-26T00:42:50;95875.44;;;1.20;69.65
36192;BME280;22233;42.708;23.360;2023-01-26T00:45:18;95878.47;;;1.58;68.60
36192;BME280;22233;42.708;23.360;2023-01-26T00:47:44;95878.22;;;1.43;68.73
36192;BME280;22233;42.708;23.360;2023-01-26T00:50:09;95870.44;;;1.41;69.50
36192;BME280;22233;42.708;23.360;2023-01-26T00:52:35;95869.13;;;1.44;69.50
36192;BME280;22233;42.708;23.360;2023-01-26T00:55:00;95859.72;;;1.24;68.55
36192;BME280;22233;42.708;23.360;2023-01-26T00:57:26;95869.03;;;1.38;68.40
36192;BME280;22233;42.708;23.360;2023-01-26T00:59:51;95866.06;;;1.35;68.20
36192;BME280;22233;42.708;23.360;2023-01-26T01:02:16;95868.16;;;1.50;68.73
36192;BME280;22233;42.708;23.360;2023-01-26T01:04:42;95853.50;;;1.35;68.60
36192;BME280;22233;42.708;23.360;2023-01-26T01:07:07;95848.22;;;1.07;69.19
36192;BME280;22233;42.708;23.360;2023-01-26T01:09:33;95849.75;;;1.36;68.07
36192;BME280;22233;42.708;23.360;2023-01-26T01:11:58;95849.59;;;1.26;67.96
36192;BME280;22233;42.708;23.360;2023-01-26T01:14:24;95833.28;;;1.28;67.96
36192;BME280;22233;42.708;23.360;2023-01-26T01:16:49;95844.31;;;1.31;67.62
36192;BME280;22233;42.708;23.360;2023-01-26T01:19:17;95856.94;;;1.53;67.48
36192;BME280;22233;42.708;23.360;2023-01-26T01:21:43;95851.88;;;1.51;67.18
36192;BME280;22233;42.708;23.360;2023-01-26T01:24:10;95840.66;;;1.54;67.30
36192;BME280;22233;42.708;23.360;2023-01-26T01:26:35;95844.53;;;1.47;67.27
36192;BME280;22233;42.708;23.360;2023-01-26T01:29:01;95848.22;;;1.57;66.67
36192;BME280;22233;42.708;23.360;2023-01-26T01:31:26;95848.34;;;1.51;67.73
36192;BME280;22233;42.708;23.360;2023-01-26T01:33:54;95834.41;;;1.32;67.03
36192;BME280;22233;42.708;23.360;2023-01-26T01:36:19;95834.97;;;1.68;66.55
36192;BME280;22233;42.708;23.360;2023-01-26T01:38:45;95813.81;;;1.15;66.59
36192;BME280;22233;42.708;23.360;2023-01-26T01:41:13;95846.44;;;1.29;67.75
36192;BME280;22233;42.708;23.360;2023-01-26T01:43:39;95850.22;;;1.16;68.28
36192;BME280;22233;42.708;23.360;2023-01-26T01:46:29;95845.19;;;1.20;67.99
36192;BME280;22233;42.708;23.360;2023-01-26T01:49:02;95842.03;;;1.06;68.53
36192;BME280;22233;42.708;23.360;2023-01-26T01:51:37;95843.91;;;1.23;68.53
36192;BME280;22233;42.708;23.360;2023-01-26T01:54:12;95849.31;;;0.94;68.67
36192;BME280;22233;42.708;23.360;2023-01-26T01:56:42;95825.13;;;0.72;69.99
36192;BME280;22233;42.708;23.360;2023-01-26T01:59:10;95830.91;;;0.52;69.79
36192;BME280;22233;42.708;23.360;2023-01-26T02:01:37;95830.09;;;0.51;70.61
36192;BME280;22233;42.708;23.360;2023-01-26T02:04:04;95836.31;;;0.69;70.26
36192;BME280;22233;42.708;23.360;2023-01-26T02:06:38;95820.59;;;0.72;69.28
36192;BME280;22233;42.708;23.360;2023-01-26T02:09:06;95823.69;;;0.81;69.55
36192;BME280;22233;42.708;23.360;2023-01-26T02:11:41;95810.72;;;0.90;68.54
36192;BME280;22233;42.708;23.360;2023-01-26T02:14:13;95816.97;;;0.95;68.20
36192;BME280;22233;42.708;23.360;2023-01-26T02:16:40;95818.69;;;1.18;67.75
36192;BME280;22233;42.708;23.360;2023-01-26T02:19:12;95810.59;;;1.13;68.25
36192;BME280;22233;42.708;23.360;2023-01-26T02:21:42;95795.66;;;1.17;67.34
36192;BME280;22233;42.708;23.360;2023-01-26T02:24:19;95793.63;;;0.91;69.06
36192;BME280;22233;42.708;23.360;2023-01-26T02:26:46;95796.13;;;1.14;69.08
36192;BME280;22233;42.708;23.360;2023-01-26T02:29:12;95782.94;;;1.08;69.34
36192;BME280;22233;42.708;23.360;2023-01-26T02:31:38;95770.16;;;0.64;69.83
36192;BME280;22233;42.708;23.360;2023-01-26T02:34:04;95786.97;;;0.93;69.17
36192;BME280;22233;42.708;23.360;2023-01-26T02:36:31;95760.53;;;0.80;69.08
36192;BME280;22233;42.708;23.360;2023-01-26T02:41:56;95785.34;;;0.75;69.66
36192;BME280;22233;42.708;23.360;2023-01-26T02:44:45;95760.16;;;0.71;69.89
36192;BME280;22233;42.708;23.360;2023-01-26T02:47:16;95770.78;;;0.83;69.95
36192;BME280;22233;42.708;23.360;2023-01-26T02:49:41;95771.91;;;0.87;70.06
36192;BME280;22233;42.708;23.360;2023-01-26T02:52:26;95774.34;;;0.89;70.34
36192;BME280;22233;42.708;23.360;2023-01-26T02:54:52;95765.91;;;0.97;68.76
36192;BME280;22233;42.708;23.360;2023-01-26T02:57:37;95750.44;;;0.99;69.69
36192;BME280;22233;42.708;23.360;2023-01-26T03:00:07;95746.94;;;0.98;69.59
36192;BME280;22233;42.708;23.360;2023-01-26T03:02:32;95750.59;;;1.09;68.81
36192;BME280;22233;42.708;23.360;2023-01-26T03:04:58;95749.66;;;1.20;68.04
36192;BME280;22233;42.708;23.360;2023-01-26T03:07:23;95746.19;;;1.20;68.85
36192;BME280;22233;42.708;23.360;2023-01-26T03:09:49;95724.66;;;0.93;68.77
36192;BME280;22233;42.708;23.360;2023-01-26T03:12:14;95750.41;;;0.65;70.43
36192;BME280;22233;42.708;23.360;2023-01-26T03:14:40;95750.25;;;0.72;69.62
36192;BME280;22233;42.708;23.360;2023-01-26T03:17:05;95747.81;;;0.70;69.73
36192;BME280;22233;42.708;23.360;2023-01-26T03:19:30;95723.81;;;0.92;69.65
36192;BME280;22233;42.708;23.360;2023-01-26T03:22:14;95732.09;;;0.74;69.55
36192;BME280;22233;42.708;23.360;2023-01-26T03:24:58;95732.03;;;0.69;69.37
36192;BME280;22233;42.708;23.360;2023-01-26T03:27:45;95725.53;;;0.82;69.75
36192;BME280;22233;42.708;23.360;2023-01-26T03:30:11;95711.59;;;0.79;70.29
36192;BME280;22233;42.708;23.360;2023-01-26T03:32:38;95709.56;;;0.70;71.12
36192;BME280;22233;42.708;23.360;2023-01-26T03:35:04;95711.91;;;1.00;69.78
36192;BME280;22233;42.708;23.360;2023-01-26T03:37:29;95713.28;;;1.19;69.57
36192;BME280;22233;42.708;23.360;2023-01-26T03:40:02;95706.91;;;0.87;70.03
36192;BME280;22233;42.708;23.360;2023-01-26T03:42:46;95705.44;;;1.13;69.69
36192;BME280;22233;42.708;23.360;2023-01-26T03:45:30;95693.84;;;1.07;68.62
36192;BME280;22233;42.708;23.360;2023-01-26T03:48:14;95697.84;;;1.27;68.09
36192;BME280;22233;42.708;23.360;2023-01-26T03:50:58;95701.25;;;1.22;68.69
36192;BME280;22233;42.708;23.360;2023-01-26T03:53:42;95692.72;;;0.86;68.97
36192;BME280;22233;42.708;23.360;2023-01-26T03:56:27;95675.88;;;0.69;70.13
36192;BME280;22233;42.708;23.360;2023-01-26T03:58:58;95682.19;;;0.46;70.24
36192;BME280;22233;42.708;23.360;2023-01-26T04:01:44;95698.78;;;0.48;71.46
36192;BME280;22233;42.708;23.360;2023-01-26T04:04:28;95682.84;;;0.53;71.06
36192;BME280;22233;42.708;23.360;2023-01-26T04:07:13;95674.22;;;0.34;72.25
36192;BME280;22233;42.708;23.360;2023-01-26T04:09:57;95676.44;;;0.54;72.33
36192;BME280;22233;42.708;23.360;2023-01-26T04:12:22;95651.47;;;0.48;70.21
36192;BME280;22233;42.708;23.360;2023-01-26T04:14:48;95665.00;;;0.42;71.71
36192;BME280;22233;42.708;23.360;2023-01-26T04:17:32;95677.63;;;0.46;72.08
36192;BME280;22233;42.708;23.360;2023-01-26T04:20:16;95671.31;;;0.52;70.76
36192;BME280;22233;42.708;23.360;2023-01-26T04:23:00;95655.44;;;0.46;70.77
36192;BME280;22233;42.708;23.360;2023-01-26T04:25:25;95642.75;;;0.53;70.73
36192;BME280;22233;42.708;23.360;2023-01-26T04:27:50;95644.78;;;0.29;70.88
36192;BME280;22233;42.708;23.360;2023-01-26T04:30:16;95644.94;;;0.39;71.89
36192;BME280;22233;42.708;23.360;2023-01-26T04:32:42;95637.00;;;0.61;70.26
36192;BME280;22233;42.708;23.360;2023-01-26T04:35:09;95632.28;;;0.51;70.52
36192;BME280;22233;42.708;23.360;2023-01-26T04:37:34;95633.44;;;0.38;71.45
36192;BME280;22233;42.708;23.360;2023-01-26T04:40:00;95630.66;;;0.50;70.61
36192;BME280;22233;42.708;23.360;2023-01-26T04:42:25;95646.56;;;0.57;70.16
36192;BME280;22233;42.708;23.360;2023-01-26T04:44:51;95645.63;;;0.68;70.47
36192;BME280;22233;42.708;23.360;2023-01-26T04:47:17;95655.84;;;0.71;69.49
36192;BME280;22233;42.708;23.360;2023-01-26T04:49:42;95652.53;;;0.64;69.96
36192;BME280;22233;42.708;23.360;2023-01-26T04:52:08;95637.81;;;0.45;69.95
36192;BME280;22233;42.708;23.360;2023-01-26T04:54:34;95643.38;;;0.60;69.51
36192;BME280;22233;42.708;23.360;2023-01-26T04:56:59;95644.78;;;0.63;69.16
36192;BME280;22233;42.708;23.360;2023-01-26T04:59:25;95646.06;;;0.60;69.83
36192;BME280;22233;42.708;23.360;2023-01-26T05:01:50;95643.78;;;0.69;69.79
36192;BME280;22233;42.708;23.360;2023-01-26T05:04:16;95631.72;;;0.15;70.29
36192;BME280;22233;42.708;23.360;2023-01-26T05:06:41;95647.69;;;0.61;69.26
36192;BME280;22233;42.708;23.360;2023-01-26T05:09:07;95634.31;;;0.44;70.10
36192;BME280;22233;42.708;23.360;2023-01-26T05:11:32;95653.19;;;0.37;69.65
36192;BME280;22233;42.708;23.360;2023-01-26T05:13:58;95636.34;;;0.37;70.22
36192;BME280;22233;42.708;23.360;2023-01-26T05:16:23;95641.69;;;0.37;70.39
36192;BME280;22233;42.708;23.360;2023-01-26T05:18:49;95635.72;;;0.47;70.20
36192;BME280;22233;42.708;23.360;2023-01-26T05:21:14;95639.88;;;0.76;70.68
36192;BME280;22233;42.708;23.360;2023-01-26T05:23:40;95637.19;;;0.76;70.21
36192;BME280;22233;42.708;23.360;2023-01-26T05:26:05;95648.31;;;0.85;69.51
36192;BME280;22233;42.708;23.360;2023-01-26T05:28:31;95639.97;;;0.82;69.65
36192;BME280;22233;42.708;23.360;2023-01-26T05:30:57;95608.56;;;0.94;68.95
36192;BME280;22233;42.708;23.360;2023-01-26T05:33:23;95636.81;;;0.85;69.45
36192;BME280;22233;42.708;23.360;2023-01-26T05:35:48;95629.66;;;0.90;69.07
36192;BME280;22233;42.708;23.360;2023-01-26T05:38:14;95622.44;;;0.91;68.96
36192;BME280;22233;42.708;23.360;2023-01-26T05:40:40;95623.16;;;0.86;69.47
36192;BME280;22233;42.708;23.360;2023-01-26T05:43:05;95631.41;;;0.63;70.05
36192;BME280;22233;42.708;23.360;2023-01-26T05:45:33;95608.38;;;0.62;70.08
36192;BME280;22233;42.708;23.360;2023-01-26T05:47:58;95629.75;;;0.78;70.25
36192;BME280;22233;42.708;23.360;2023-01-26T05:50:24;95628.06;;;1.11;68.75
36192;BME280;22233;42.708;23.360;2023-01-26T05:52:49;95623.19;;;1.08;68.67
36192;BME280;22233;42.708;23.360;2023-01-26T05:55:15;95634.09;;;1.24;68.17
36192;BME280;22233;42.708;23.360;2023-01-26T05:57:40;95620.66;;;1.18;69.11
36192;BME280;22233;42.708;23.360;2023-01-26T06:00:07;95638.69;;;1.06;69.08
36192;BME280;22233;42.708;23.360;2023-01-26T06:02:33;95641.94;;;1.08;69.01
36192;BME280;22233;42.708;23.360;2023-01-26T06:04:58;95638.44;;;1.08;68.95
36192;BME280;22233;42.708;23.360;2023-01-26T06:07:23;95631.53;;;1.12;69.37
36192;BME280;22233;42.708;23.360;2023-01-26T06:09:50;95635.19;;;0.84;69.51
36192;BME280;22233;42.708;23.360;2023-01-26T06:12:18;95623.72;;;1.27;67.88
36192;BME280;22233;42.708;23.360;2023-01-26T06:14:44;95624.84;;;1.31;67.78
36192;BME280;22233;42.708;23.360;2023-01-26T06:17:10;95637.09;;;1.49;68.37
36192;BME280;22233;42.708;23.360;2023-01-26T06:19:35;95610.94;;;1.12;68.57
36192;BME280;22233;42.708;23.360;2023-01-26T06:22:02;95621.66;;;1.34;68.42
36192;BME280;22233;42.708;23.360;2023-01-26T06:24:28;95619.94;;;1.45;67.61
36192;BME280;22233;42.708;23.360;2023-01-26T06:26:54;95628.50;;;2.98;78.74
36192;BME280;22233;42.708;23.360;2023-01-26T06:29:19;95612.13;;;2.57;65.56
36192;BME280;22233;42.708;23.360;2023-01-26T06:31:45;95614.88;;;2.30;65.58
36192;BME280;22233;42.708;23.360;2023-01-26T06:34:10;95612.75;;;2.32;65.55
36192;BME280;22233;42.708;23.360;2023-01-26T06:36:36;95613.34;;;2.39;64.52
36192;BME280;22233;42.708;23.360;2023-01-26T06:39:01;95598.44;;;1.89;65.58
36192;BME280;22233;42.708;23.360;2023-01-26T06:41:27;95607.00;;;2.18;65.17
36192;BME280;22233;42.708;23.360;2023-01-26T06:43:53;95600.28;;;1.89;66.37
36192;BME280;22233;42.708;23.360;2023-01-26T06:46:18;95615.25;;;2.12;66.02
36192;BME280;22233;42.708;23.360;2023-01-26T06:48:44;95608.25;;;2.11;65.36
36192;BME280;22233;42.708;23.360;2023-01-26T06:53:48;95608.34;;;1.39;67.32
36192;BME280;22233;42.708;23.360;2023-01-26T06:56:15;95597.06;;;1.37;68.00
36192;BME280;22233;42.708;23.360;2023-01-26T06:58:40;95594.34;;;1.32;68.46
36192;BME280;22233;42.708;23.360;2023-01-26T07:01:06;95597.41;;;1.41;68.35
36192;BME280;22233;42.708;23.360;2023-01-26T07:03:31;95599.94;;;1.31;69.82
36192;BME280;22233;42.708;23.360;2023-01-26T07:05:57;95593.75;;;1.52;68.89
36192;BME280;22233;42.708;23.360;2023-01-26T07:08:22;95591.97;;;1.36;69.74
36192;BME280;22233;42.708;23.360;2023-01-26T07:10:50;95588.97;;;1.32;70.16
36192;BME280;22233;42.708;23.360;2023-01-26T07:13:16;95574.00;;;1.31;69.19
36192;BME280;22233;42.708;23.360;2023-01-26T07:15:41;95578.66;;;1.19;70.25
36192;BME280;22233;42.708;23.360;2023-01-26T07:18:06;95579.72;;;0.96;70.75
36192;BME280;22233;42.708;23.360;2023-01-26T07:20:32;95568.31;;;1.06;70.49
36192;BME280;22233;42.708;23.360;2023-01-26T07:23:00;95580.47;;;1.13;70.97
36192;BME280;22233;42.708;23.360;2023-01-26T07:25:26;95573.22;;;1.36;69.96
36192;BME280;22233;42.708;23.360;2023-01-26T07:27:58;95580.41;;;1.08;71.42
36192;BME280;22233;42.708;23.360;2023-01-26T07:30:24;95580.72;;;1.34;71.01
36192;BME280;22233;42.708;23.360;2023-01-26T07:32:50;95581.78;;;1.11;71.66
36192;BME280;22233;42.708;23.360;2023-01-26T07:35:16;95574.88;;;0.93;72.43
36192;BME280;22233;42.708;23.360;2023-01-26T07:37:42;95581.47;;;1.29;72.50
36192;BME280;22233;42.708;23.360;2023-01-26T07:40:08;95566.22;;;1.08;73.57
36192;BME280;22233;42.708;23.360;2023-01-26T07:42:33;95564.91;;;1.10;73.49
36192;BME280;22233;42.708;23.360;2023-01-26T07:44:59;95555.19;;;1.04;74.13
36192;BME280;22233;42.708;23.360;2023-01-26T07:47:24;95558.25;;;1.35;73.86
36192;BME280;22233;42.708;23.360;2023-01-26T07:49:50;95567.63;;;1.65;72.80
36192;BME280;22233;42.708;23.360;2023-01-26T07:52:15;95567.25;;;1.29;73.92
36192;BME280;22233;42.708;23.360;2023-01-26T07:54:41;95570.25;;;1.32;73.76
36192;BME280;22233;42.708;23.360;2023-01-26T07:57:06;95552.34;;;1.60;71.91
36192;BME280;22233;42.708;23.360;2023-01-26T07:59:32;95564.78;;;1.71;72.33
36192;BME280;22233;42.708;23.360;2023-01-26T08:01:58;95578.94;;;1.99;70.96
36192;BME280;22233;42.708;23.360;2023-01-26T08:04:23;95578.53;;;2.12;70.49
36192;BME280;22233;42.708;23.360;2023-01-26T08:06:52;95571.06;;;2.14;70.30
36192;BME280;22233;42.708;23.360;2023-01-26T08:09:17;95557.81;;;2.35;70.21
36192;BME280;22233;42.708;23.360;2023-01-26T08:11:43;95555.97;;;2.40;69.28
36192;BME280;22233;42.708;23.360;2023-01-26T08:14:08;95541.72;;;1.97;70.82
36192;BME280;22233;42.708;23.360;2023-01-26T08:16:34;95548.78;;;2.46;69.08
36192;BME280;22233;42.708;23.360;2023-01-26T08:18:59;95544.81;;;2.59;69.56
36192;BME280;22233;42.708;23.360;2023-01-26T08:21:25;95539.25;;;2.66;68.50
36192;BME280;22233;42.708;23.360;2023-01-26T08:23:51;95547.38;;;2.38;68.86
36192;BME280;22233;42.708;23.360;2023-01-26T08:26:18;95547.22;;;2.55;67.11
36192;BME280;22233;42.708;23.360;2023-01-26T08:28:44;95543.91;;;2.38;66.74
36192;BME280;22233;42.708;23.360;2023-01-26T08:31:15;95533.59;;;2.67;66.67
36192;BME280;22233;42.708;23.360;2023-01-26T08:33:45;95537.00;;;2.15;66.96
36192;BME280;22233;42.708;23.360;2023-01-26T08:36:12;95534.78;;;2.02;67.84
36192;BME280;22233;42.708;23.360;2023-01-26T08:38:39;95531.63;;;2.10;66.71
36192;BME280;22233;42.708;23.360;2023-01-26T08:41:05;95523.19;;;2.28;65.77
36192;BME280;22233;42.708;23.360;2023-01-26T08:43:30;95517.28;;;1.94;66.84
36192;BME280;22233;42.708;23.360;2023-01-26T08:45:56;95518.88;;;2.27;66.72
36192;BME280;22233;42.708;23.360;2023-01-26T08:48:22;95526.19;;;2.37;65.92
36192;BME280;22233;42.708;23.360;2023-01-26T08:50:47;95513.56;;;2.32;65.38
36192;BME280;22233;42.708;23.360;2023-01-26T08:53:13;95526.47;;;2.40;65.60
36192;BME280;22233;42.708;23.360;2023-01-26T08:55:38;95527.63;;;2.50;64.68
36192;BME280;22233;42.708;23.360;2023-01-26T08:58:04;95530.38;;;2.65;64.78
36192;BME280;22233;42.708;23.360;2023-01-26T09:00:29;95522.81;;;2.57;64.51
36192;BME280;22233;42.708;23.360;2023-01-26T09:03:01;95528.00;;;2.69;63.69
36192;BME280;22233;42.708;23.360;2023-01-26T09:05:30;95525.53;;;2.62;64.33
36192;BME280;22233;42.708;23.360;2023-01-26T09:07:56;95516.25;;;2.32;64.24
36192;BME280;22233;42.708;23.360;2023-01-26T09:10:21;95525.69;;;2.40;63.74
36192;BME280;22233;42.708;23.360;2023-01-26T09:12:47;95530.03;;;2.51;63.99
36192;BME280;22233;42.708;23.360;2023-01-26T09:15:12;95525.44;;;2.42;63.94
36192;BME280;22233;42.708;23.360;2023-01-26T09:17:38;95515.31;;;2.54;63.18
36192;BME280;22233;42.708;23.360;2023-01-26T09:20:04;95528.34;;;2.40;63.28
36192;BME280;22233;42.708;23.360;2023-01-26T09:22:30;95516.84;;;2.39;63.29
36192;BME280;22233;42.708;23.360;2023-01-26T09:24:56;95518.25;;;2.15;64.75
36192;BME280;22233;42.708;23.360;2023-01-26T09:27:21;95503.44;;;2.07;65.26
36192;BME280;22233;42.708;23.360;2023-01-26T09:29:47;95506.47;;;2.16;64.59
36192;BME280;22233;42.708;23.360;2023-01-26T09:32:12;95496.16;;;1.97;64.69
36192;BME280;22233;42.708;23.360;2023-01-26T09:34:38;95486.69;;;2.22;65.10
36192;BME280;22233;42.708;23.360;2023-01-26T09:37:06;95486.50;;;2.34;64.59
36192;BME280;22233;42.708;23.360;2023-01-26T09:39:31;95483.72;;;2.18;64.82
36192;BME280;22233;42.708;23.360;2023-01-26T09:42:56;95482.03;;;2.50;64.06
36192;BME280;22233;42.708;23.360;2023-01-26T09:45:03;95471.91;;;2.62;63.39
36192;BME280;22233;42.708;23.360;2023-01-26T09:50:33;95485.00;;;2.11;64.64
36192;BME280;22233;42.708;23.360;2023-01-26T09:53:16;95475.63;;;2.56;64.00
36192;BME280;22233;42.708;23.360;2023-01-26T09:55:44;95476.88;;;2.38;64.96
36192;BME280;22233;42.708;23.360;2023-01-26T09:58:34;95465.34;;;2.43;64.96
36192;BME280;22233;42.708;23.360;2023-01-26T10:01:02;95460.03;;;2.05;65.49
36192;BME280;22233;42.708;23.360;2023-01-26T10:08:26;95465.72;;;2.62;63.86
36192;BME280;22233;42.708;23.360;2023-01-26T10:10:57;95473.69;;;2.46;64.40
36192;BME280;22233;42.708;23.360;2023-01-26T10:13:23;95455.31;;;2.75;63.30
36192;BME280;22233;42.708;23.360;2023-01-26T10:15:53;95458.25;;;2.64;63.06
36192;BME280;22233;42.708;23.360;2023-01-26T10:18:29;95456.63;;;2.15;64.68
36192;BME280;22233;42.708;23.360;2023-01-26T10:20:58;95440.19;;;2.44;64.46
36192;BME280;22233;42.708;23.360;2023-01-26T10:23:33;95442.06;;;2.53;63.67
36192;BME280;22233;42.708;23.360;2023-01-26T10:26:20;95433.53;;;2.56;64.43
36192;BME280;22233;42.708;23.360;2023-01-26T10:28:48;95411.09;;;2.20;64.32
36192;BME280;22233;42.708;23.360;2023-01-26T10:31:22;95412.31;;;2.55;63.66
36192;BME280;22233;42.708;23.360;2023-01-26T10:33:57;95391.53;;;2.25;63.89
36192;BME280;22233;42.708;23.360;2023-01-26T10:36:24;95403.44;;;2.49;63.91
36192;BME280;22233;42.708;23.360;2023-01-26T10:38:50;95405.38;;;2.54;63.61
36192;BME280;22233;42.708;23.360;2023-01-26T10:41:25;95387.75;;;2.78;63.21
36192;BME280;22233;42.708;23.360;2023-01-26T10:44:00;95387.34;;;2.49;63.17
36192;BME280;22233;42.708;23.360;2023-01-26T10:48:57;95360.56;;;2.54;63.85
36192;BME280;22233;42.708;23.360;2023-01-26T10:51:34;95352.38;;;3.02;62.71
36192;BME280;22233;42.708;23.360;2023-01-26T10:54:22;95358.25;;;2.89;62.14
36192;BME280;22233;42.708;23.360;2023-01-26T10:56:55;95356.13;;;3.06;62.17
36192;BME280;22233;42.708;23.360;2023-01-26T11:04:34;95323.13;;;3.26;61.41
36192;BME280;22233;42.708;23.360;2023-01-26T11:07:36;95332.78;;;3.37;61.22
36192;BME280;22233;42.708;23.360;2023-01-26T11:12:49;95326.34;;;3.03;61.86
36192;BME280;22233;42.708;23.360;2023-01-26T11:15:36;95307.81;;;3.22;61.38
36192;BME280;22233;42.708;23.360;2023-01-26T11:18:21;95294.66;;;2.89;62.17
36192;BME280;22233;42.708;23.360;2023-01-26T11:21:29;95302.16;;;2.97;62.96
36192;BME280;22233;42.708;23.360;2023-01-26T11:29:35;95282.03;;;3.26;62.40
36192;BME280;22233;42.708;23.360;2023-01-26T11:35:14;95276.16;;;2.93;62.97
36192;BME280;22233;42.708;23.360;2023-01-26T11:37:47;95274.03;;;3.00;63.57
36192;BME280;22233;42.708;23.360;2023-01-26T11:40:46;95271.84;;;2.97;63.51
36192;BME280;22233;42.708;23.360;2023-01-26T11:48:34;95243.69;;;3.05;62.75
36192;BME280;22233;42.708;23.360;2023-01-26T11:53:45;95257.59;;;3.48;62.32
36192;BME280;22233;42.708;23.360;2023-01-26T11:58:54;95259.47;;;3.47;62.32
36192;BME280;22233;42.708;23.360;2023-01-26T12:01:26;95248.50;;;3.28;63.26
36192;BME280;22233;42.708;23.360;2023-01-26T12:03:54;95242.31;;;3.17;62.19
36192;BME280;22233;42.708;23.360;2023-01-26T12:06:36;95233.72;;;3.41;62.61
36192;BME280;22233;42.708;23.360;2023-01-26T12:09:16;95236.66;;;3.45;63.00
36192;BME280;22233;42.708;23.360;2023-01-26T12:11:52;95234.78;;;3.30;62.58
36192;BME280;22233;42.708;23.360;2023-01-26T12:22:05;95222.44;;;3.29;62.60
36192;BME280;22233;42.708;23.360;2023-01-26T12:24:42;95217.59;;;3.46;63.24
36192;BME280;22233;42.708;23.360;2023-01-26T12:27:52;95211.72;;;3.24;63.79
36192;BME280;22233;42.708;23.360;2023-01-26T12:32:43;95185.72;;;2.98;64.28
36192;BME280;22233;42.708;23.360;2023-01-26T12:35:11;95183.84;;;2.99;64.76
36192;BME280;22233;42.708;23.360;2023-01-26T12:38:08;95192.41;;;3.16;64.26
36192;BME280;22233;42.708;23.360;2023-01-26T12:40:41;95172.84;;;2.90;65.11
36192;BME280;22233;42.708;23.360;2023-01-26T12:45:41;95186.00;;;3.02;65.10
36192;BME280;22233;42.708;23.360;2023-01-26T12:48:15;95183.84;;;2.84;65.33
36192;BME280;22233;42.708;23.360;2023-01-26T12:50:48;95169.91;;;2.51;66.93
36192;BME280;22233;42.708;23.360;2023-01-26T12:55:56;95170.16;;;3.16;65.04
36192;BME280;22233;42.708;23.360;2023-01-26T12:58:27;95170.97;;;2.96;65.91
36192;BME280;22233;42.708;23.360;2023-01-26T13:01:04;95159.91;;;3.23;64.56
36192;BME280;22233;42.708;23.360;2023-01-26T13:03:54;95180.34;;;2.98;65.63
36192;BME280;22233;42.708;23.360;2023-01-26T13:06:22;95150.06;;;2.83;66.45
36192;BME280;22233;42.708;23.360;2023-01-26T13:11:45;95174.72;;;3.05;66.61
36192;BME280;22233;42.708;23.360;2023-01-26T13:14:36;95174.22;;;2.72;67.66
36192;BME280;22233;42.708;23.360;2023-01-26T13:24:47;95150.56;;;3.05;66.45
36192;BME280;22233;42.708;23.360;2023-01-26T13:27:33;95160.44;;;3.25;66.81
36192;BME280;22233;42.708;23.360;2023-01-26T13:30:00;95155.91;;;3.10;66.65
36192;BME280;22233;42.708;23.360;2023-01-26T13:34:59;95138.69;;;3.27;67.12
36192;BME280;22233;42.708;23.360;2023-01-26T13:37:51;95150.84;;;2.98;67.04
36192;BME280;22233;42.708;23.360;2023-01-26T13:40:25;95140.38;;;2.82;67.80
36192;BME280;22233;42.708;23.360;2023-01-26T13:51:03;95147.31;;;3.18;67.35
36192;BME280;22233;42.708;23.360;2023-01-26T13:55:59;95133.06;;;3.23;66.23
36192;BME280;22233;42.708;23.360;2023-01-26T13:58:26;95147.78;;;3.46;65.98
36192;BME280;22233;42.708;23.360;2023-01-26T14:00:59;95129.38;;;2.93;67.34
36192;BME280;22233;42.708;23.360;2023-01-26T14:03:25;95126.31;;;3.36;65.83
36192;BME280;22233;42.708;23.360;2023-01-26T14:06:13;95114.28;;;3.28;65.80
36192;BME280;22233;42.708;23.360;2023-01-26T14:08:44;95109.66;;;3.34;66.07
36192;BME280;22233;42.708;23.360;2023-01-26T14:11:17;95128.19;;;3.40;65.25
36192;BME280;22233;42.708;23.360;2023-01-26T14:13:46;95121.25;;;3.24;66.33
36192;BME280;22233;42.708;23.360;2023-01-26T14:16:22;95114.22;;;3.38;66.00
36192;BME280;22233;42.708;23.360;2023-01-26T14:18:48;95102.03;;;3.62;65.55
36192;BME280;22233;42.708;23.360;2023-01-26T14:21:19;95120.97;;;3.26;65.95
36192;BME280;22233;42.708;23.360;2023-01-26T14:23:44;95115.78;;;3.50;65.91
36192;BME280;22233;42.708;23.360;2023-01-26T14:26:20;95115.94;;;3.79;65.32
36192;BME280;22233;42.708;23.360;2023-01-26T14:28:48;95100.31;;;3.81;64.42
36192;BME280;22233;42.708;23.360;2023-01-26T14:31:22;95107.81;;;3.89;64.62
36192;BME280;22233;42.708;23.360;2023-01-26T14:33:54;95105.81;;;4.05;64.65
36192;BME280;22233;42.708;23.360;2023-01-26T14:36:29;95101.34;;;3.90;64.97